KMLS/MLS METAR and TAF weather

Enter ICAO airport designator
Station Type Date Time Source
KMLS METAR 2020/09/22 02:53 UTC NOAA

KMLS 220253Z AUTO 07005KT 10SM CLR 19/02 A2999 RMK AO2 SLP148 T01940017 51003


Station Type Date Time Source
KMLS Decoded METAR 2020/09/22 02:53 UTC NOAA

MILES CITY WILEY FIELD, MT, United States (KMLS) 46-26N 105-53W 801M
Sep 21, 2020 - 10:53 PM EDT / 2020.09.22 0253 UTC
Wind: from the ENE (070 degrees) at 6 MPH (5 KT):0
Visibility: 10 mile(s):0
Sky conditions: clear
Temperature: 66.9 F (19.4 C)
Dew Point: 35.1 F (1.7 C)
Relative Humidity: 30%
Pressure (altimeter): 29.99 in. Hg (1015 hPa)
Pressure tendency: 0.01 inches (0.3 hPa) higher than three hours ago
ob: KMLS 220253Z AUTO 07005KT 10SM CLR 19/02 A2999 RMK AO2 SLP148 T01940017 51003
cycle: 3

Station Type Date Time Source
KMLS TAF 2020/09/21 18:24 UTC NOAA

TAF KMLS 211721Z 2118/2218 16005KT P6SM FEW110
FM220300 12006KT P6SM SKC
FM221600 16007KT P6SM SKC

Example: see airport list